Time;durP1;ratioP1;P1;durP2;ratioP2;P2;SDS_P1;SDS_P2;PMS_P1;PMS_P2;Temp;Humidity;BMP_temperature;BMP_pressure;BME280_temperature;BME280_humidity;BME280_pressure;Samples;Min_cycle;Max_cycle;Signal;HPM_P1;HPM_P2
2023/01/23 00:00:15;;;;;;;18.10;11.40;;;;;;;2.24;76.99;102095.22;4123862;28;20045;-62
2023/01/23 00:02:18;;;;;;;17.20;11.48;;;;;;;2.23;77.17;102099.47;4126888;28;20053;-62
2023/01/23 00:04:21;;;;;;;19.73;11.80;;;;;;;2.25;76.42;102097.91;4129337;28;20041;-62
2023/01/23 00:06:25;;;;;;;18.15;12.40;;;;;;;2.24;77.26;102097.78;4119919;28;20349;-62
2023/01/23 00:08:29;;;;;;;17.52;12.32;;;;;;;2.33;76.18;102095.88;4115419;28;20745;-62
2023/01/23 00:10:31;;;;;;;18.48;12.48;;;;;;;2.23;76.51;102096.00;4120384;28;20097;-62
2023/01/23 00:12:34;;;;;;;17.35;11.10;;;;;;;2.23;76.75;102089.22;4124084;28;20042;-62
2023/01/23 00:14:38;;;;;;;19.02;11.95;;;;;;;2.33;76.76;102102.72;4121868;28;20039;-62
2023/01/23 00:16:41;;;;;;;22.55;14.13;;;;;;;2.23;76.68;102094.34;4115841;28;20066;-62
2023/01/23 00:18:45;;;;;;;16.48;11.40;;;;;;;2.27;77.30;102098.00;4107850;28;20043;-62
2023/01/23 00:20:48;;;;;;;18.50;11.65;;;;;;;2.21;77.07;102095.88;4118372;28;20414;-62
2023/01/23 00:22:51;;;;;;;19.08;12.13;;;;;;;2.24;76.89;102090.09;4116813;28;20039;-62
2023/01/23 00:24:53;;;;;;;16.83;11.10;;;;;;;2.24;76.75;102087.53;4124213;28;20112;-62
2023/01/23 00:26:56;;;;;;;16.33;10.52;;;;;;;2.33;76.46;102100.16;4125548;28;20381;-62
2023/01/23 00:28:59;;;;;;;17.80;12.18;;;;;;;2.26;76.48;102088.50;4113395;28;20042;-62
2023/01/23 00:31:04;;;;;;;16.77;11.02;;;;;;;2.25;76.16;102095.34;4112661;28;20054;-62
2023/01/23 00:33:08;;;;;;;15.70;10.98;;;;;;;2.26;76.39;102094.56;4135463;28;20594;-62
2023/01/23 00:35:10;;;;;;;19.45;12.15;;;;;;;2.23;76.17;102089.22;4121701;28;20069;-62
2023/01/23 00:37:15;;;;;;;17.40;12.20;;;;;;;2.21;76.30;102095.00;4127404;28;20049;-62
2023/01/23 00:39:20;;;;;;;16.40;11.30;;;;;;;2.25;76.85;102094.44;4133051;28;20045;-62
2023/01/23 00:41:24;;;;;;;15.25;10.05;;;;;;;2.31;76.31;102092.34;4116388;28;20105;-62
2023/01/23 00:43:28;;;;;;;16.45;12.18;;;;;;;2.22;76.29;102092.53;4116689;28;20101;-62
2023/01/23 00:45:31;;;;;;;16.48;11.57;;;;;;;2.19;76.89;102086.28;4118233;28;20039;-62
2023/01/23 00:47:35;;;;;;;17.58;11.88;;;;;;;2.25;76.65;102084.19;4119814;28;20031;-62
2023/01/23 00:49:38;;;;;;;16.48;10.93;;;;;;;2.29;76.13;102087.84;4119924;28;20047;-62
2023/01/23 00:51:41;;;;;;;16.98;11.93;;;;;;;2.36;76.40;102084.97;4113686;28;20050;-62
2023/01/23 00:53:44;;;;;;;13.82;9.90;;;;;;;2.35;75.92;102089.22;4119186;28;20050;-62
2023/01/23 00:55:47;;;;;;;16.77;10.50;;;;;;;2.38;75.58;102088.53;4121813;28;20039;-62
2023/01/23 00:57:50;;;;;;;18.13;11.45;;;;;;;2.33;75.91;102090.75;4114721;28;20042;-62
2023/01/23 00:59:53;;;;;;;16.50;10.77;;;;;;;2.35;74.87;102088.31;4126812;28;20433;-62
2023/01/23 01:01:55;;;;;;;17.20;11.45;;;;;;;2.35;75.53;102088.31;4108639;28;20043;-62
2023/01/23 01:04:00;;;;;;;14.57;10.13;;;;;;;2.24;76.04;102084.97;4116975;28;20121;-62
2023/01/23 01:06:04;;;;;;;15.65;10.82;;;;;;;2.26;75.33;102093.66;4118906;28;20049;-62
2023/01/23 01:08:06;;;;;;;17.63;11.75;;;;;;;2.22;75.97;102091.63;4110477;28;20037;-62
2023/01/23 01:10:11;;;;;;;16.23;11.63;;;;;;;2.18;75.83;102098.22;4116282;28;20475;-62
2023/01/23 01:12:14;;;;;;;18.58;11.15;;;;;;;2.16;76.43;102102.34;4114189;28;20062;-62
2023/01/23 01:14:16;;;;;;;16.20;11.20;;;;;;;2.20;75.81;102103.47;4092067;28;20039;-62
2023/01/23 01:16:23;;;;;;;;;;;;;;;2.18;76.00;102099.91;4113761;28;20034;-62
2023/01/23 01:18:25;;;;;;;17.15;10.75;;;;;;;2.18;76.09;102099.91;4115876;28;19925;-62
2023/01/23 01:20:30;;;;;;;16.02;11.07;;;;;;;2.21;75.66;102100.13;4120606;28;20485;-62
2023/01/23 01:22:33;;;;;;;17.10;11.23;;;;;;;2.20;75.94;102108.59;4118145;28;20034;-62
2023/01/23 01:24:36;;;;;;;15.90;11.07;;;;;;;2.21;75.61;102103.56;4109099;28;20493;-62
2023/01/23 01:26:40;;;;;;;16.17;10.57;;;;;;;2.15;75.77;102107.38;4116172;28;20508;-62
2023/01/23 01:28:42;;;;;;;15.65;10.88;;;;;;;2.17;75.44;102099.00;4120842;28;20062;-62
2023/01/23 01:30:45;;;;;;;16.15;11.52;;;;;;;2.14;75.43;102103.91;4122808;28;20073;-62
2023/01/23 01:32:49;;;;;;;19.73;11.27;;;;;;;2.23;75.15;102108.81;4120307;28;20093;-62
2023/01/23 01:34:52;;;;;;;17.15;11.00;;;;;;;2.19;75.42;102109.38;4114030;28;20047;-62
2023/01/23 01:36:56;;;;;;;17.33;11.68;;;;;;;2.16;75.51;102111.69;4115972;28;20047;-62
2023/01/23 01:38:59;;;;;;;16.92;10.90;;;;;;;2.16;75.90;102116.84;4103166;28;20045;-62
2023/01/23 01:41:02;;;;;;;16.08;11.23;;;;;;;2.11;75.92;102124.19;4129124;28;20089;-62
2023/01/23 01:43:08;;;;;;;17.58;11.57;;;;;;;2.11;76.14;102113.94;4125346;28;20035;-62
2023/01/23 01:45:49;;;;;;;16.98;10.93;;;;;;;2.07;76.35;102122.16;4116254;28;20093;-62
2023/01/23 01:47:51;;;;;;;16.23;10.43;;;;;;;2.09;75.90;102125.75;4115146;28;20049;-62
2023/01/23 01:49:59;;;;;;;14.70;10.57;;;;;;;2.14;75.17;102129.53;4113791;28;20284;-62
2023/01/23 01:52:06;;;;;;;16.27;10.98;;;;;;;2.16;75.11;102120.31;4123753;28;20473;-62
2023/01/23 01:54:19;;;;;;;15.43;10.70;;;;;;;2.16;75.20;102125.44;4109172;28;20134;-62
2023/01/23 01:56:25;;;;;;;16.02;10.10;;;;;;;2.21;75.80;102121.53;4123489;28;20158;-62
2023/01/23 01:58:29;;;;;;;17.85;10.95;;;;;;;2.19;75.48;102119.63;4114486;28;20041;-62
2023/01/23 02:00:32;;;;;;;14.98;10.70;;;;;;;2.11;75.58;102128.44;4118738;28;20057;-61
2023/01/23 02:02:37;;;;;;;12.93;8.50;;;;;;;2.07;76.31;102124.72;4119911;28;20109;-61
2023/01/23 02:04:44;;;;;;;16.30;11.13;;;;;;;2.14;75.82;102123.53;4121471;28;20049;-62
2023/01/23 02:06:49;;;;;;;15.27;10.27;;;;;;;2.13;76.01;102121.75;4126405;28;20042;-62
2023/01/23 02:09:00;;;;;;;14.25;10.07;;;;;;;2.16;76.40;102132.22;4107392;28;20091;-61
2023/01/23 02:11:04;;;;;;;14.75;10.45;;;;;;;2.17;75.56;102124.66;4115404;28;20055;-62
2023/01/23 02:13:29;;;;;;;15.98;11.10;;;;;;;2.31;75.46;102118.00;4116150;28;20035;-61
2023/01/23 02:15:32;;;;;;;17.90;9.98;;;;;;;2.31;75.57;102128.25;4118683;28;20062;-61
2023/01/23 02:17:37;;;;;;;13.82;9.38;;;;;;;2.35;75.39;102129.38;4122063;28;20045;-62
2023/01/23 02:19:43;;;;;;;;;;;;;;;2.33;74.78;102121.56;4119987;28;20036;-62
2023/01/23 02:21:50;;;;;;;14.15;9.32;;;;;;;2.32;75.15;102119.75;4124770;28;19930;-62
2023/01/23 02:24:10;;;;;;;14.60;10.00;;;;;;;2.34;75.26;102120.78;4105644;28;20044;-61
2023/01/23 02:26:18;;;;;;;14.25;9.93;;;;;;;2.35;74.68;102122.59;4122826;28;20095;-62
2023/01/23 02:28:21;;;;;;;14.57;9.98;;;;;;;2.32;74.95;102130.03;4129992;28;20046;-62
2023/01/23 02:30:25;;;;;;;13.70;10.03;;;;;;;2.33;74.51;102129.25;4103157;28;20130;-62
2023/01/23 02:32:29;;;;;;;14.98;9.70;;;;;;;2.36;74.41;102126.03;4120837;28;20638;-62
2023/01/23 02:34:32;;;;;;;14.82;10.02;;;;;;;2.29;74.44;102127.22;4119646;28;20571;-62
2023/01/23 02:36:36;;;;;;;13.25;9.18;;;;;;;2.27;74.61;102128.81;4113137;28;20132;-62
2023/01/23 02:38:49;;;;;;;15.82;9.75;;;;;;;2.44;74.15;102128.38;4114459;28;20149;-61
2023/01/23 02:40:55;;;;;;;13.63;9.43;;;;;;;2.38;74.03;102130.50;4115879;28;20039;-62
2023/01/23 02:43:04;;;;;;;12.25;9.10;;;;;;;2.50;73.22;102138.22;4120741;28;20070;-62
2023/01/23 02:45:09;;;;;;;15.68;9.98;;;;;;;2.47;73.13;102139.66;4122685;28;20039;-62
2023/01/23 02:47:12;;;;;;;13.90;9.83;;;;;;;2.41;73.92;102129.81;4124246;28;20118;-62
2023/01/23 02:49:16;;;;;;;14.63;9.90;;;;;;;2.44;73.17;102140.34;4098444;28;20706;-62
2023/01/23 02:51:19;;;;;;;16.08;9.82;;;;;;;2.34;73.48;102133.63;4115446;28;20040;-62
2023/01/23 02:53:23;;;;;;;15.13;9.80;;;;;;;2.32;74.30;102137.72;4120606;28;20031;-62
2023/01/23 02:55:28;;;;;;;19.73;11.60;;;;;;;2.33;74.12;102133.50;4124257;28;20041;-62
2023/01/23 02:57:31;;;;;;;;;;;;;;;2.27;73.98;102134.81;4127596;28;20038;-61
2023/01/23 03:01:56;;;;;;;16.15;11.05;;;;;;;2.24;74.11;102136.28;4123209;28;20493;-62
2023/01/23 03:04:02;;;;;;;16.98;11.43;;;;;;;2.23;74.30;102145.66;4117614;28;20035;-62
2023/01/23 03:06:07;;;;;;;17.48;11.52;;;;;;;2.26;73.51;102140.75;4126489;28;20134;-62
2023/01/23 03:08:10;;;;;;;16.83;11.77;;;;;;;2.24;74.36;102146.53;4133518;28;20130;-62
2023/01/23 03:10:13;;;;;;;15.95;10.52;;;;;;;2.21;74.56;102142.06;4116398;28;20030;-62
2023/01/23 03:12:19;;;;;;;16.00;11.20;;;;;;;2.24;74.22;102134.59;4119965;28;20069;-62
2023/01/23 03:14:23;;;;;;;14.23;10.45;;;;;;;2.30;74.20;102139.28;4139800;28;20026;-63
2023/01/23 03:16:28;;;;;;;15.45;10.18;;;;;;;2.30;73.89;102133.28;4113389;28;20068;-62
2023/01/23 03:18:32;;;;;;;16.50;11.30;;;;;;;2.27;74.40;102132.25;4117046;28;20047;-62
2023/01/23 03:20:45;;;;;;;15.35;10.05;;;;;;;2.20;74.61;102139.38;4120220;28;20398;-62
2023/01/23 03:22:47;;;;;;;15.82;11.25;;;;;;;2.16;74.59;102137.34;4122654;28;20035;-62
2023/01/23 03:24:50;;;;;;;14.38;10.13;;;;;;;2.21;75.14;102141.19;4113933;28;20038;-62
2023/01/23 03:26:53;;;;;;;16.30;10.80;;;;;;;2.27;74.87;102131.38;4121162;28;20046;-62
2023/01/23 03:31:20;;;;;;;15.27;10.07;;;;;;;2.36;74.24;102132.03;4113461;28;20046;-62
2023/01/23 03:33:24;;;;;;;15.45;10.40;;;;;;;2.32;74.59;102140.28;4120687;28;20459;-62
2023/01/23 03:35:27;;;;;;;17.73;11.98;;;;;;;2.20;75.01;102147.09;4119629;28;20049;-62
2023/01/23 03:37:30;;;;;;;15.65;10.80;;;;;;;2.17;74.91;102149.41;4109475;28;20412;-62
2023/01/23 03:41:54;;;;;;;16.00;10.50;;;;;;;2.27;74.26;102145.09;4115710;28;20046;-61
2023/01/23 03:44:00;;;;;;;16.35;10.98;;;;;;;2.22;73.97;102150.63;4117877;28;20409;-61
2023/01/23 03:46:03;;;;;;;16.25;10.90;;;;;;;2.27;73.98;102146.75;4115383;28;20034;-61
2023/01/23 03:48:06;;;;;;;17.60;11.38;;;;;;;2.21;74.42;102157.47;4121366;28;20421;-61
2023/01/23 03:50:11;;;;;;;16.25;11.02;;;;;;;2.19;73.96;102155.53;4119830;28;20038;-61
2023/01/23 03:52:15;;;;;;;17.92;10.90;;;;;;;2.19;74.85;102163.25;4118793;28;20046;-62
2023/01/23 03:54:18;;;;;;;16.10;10.40;;;;;;;2.24;74.52;102156.81;4114118;28;20039;-61
2023/01/23 03:56:20;;;;;;;14.75;9.95;;;;;;;2.18;74.57;102153.78;4117491;28;20510;-61
2023/01/23 03:58:24;;;;;;;15.80;10.40;;;;;;;2.23;74.49;102149.88;4119959;28;20574;-61
2023/01/23 04:00:27;;;;;;;15.27;10.45;;;;;;;2.30;73.61;102141.84;4136523;28;20033;-61
2023/01/23 04:02:35;;;;;;;14.27;9.57;;;;;;;2.18;73.91;102146.97;4105738;28;20049;-61
2023/01/23 04:04:38;;;;;;;18.15;11.45;;;;;;;2.18;74.13;102143.53;4129707;28;20416;-61
2023/01/23 04:06:44;;;;;;;16.33;10.80;;;;;;;2.32;73.79;102144.53;4130145;28;20074;-61
2023/01/23 04:08:47;;;;;;;17.63;11.05;;;;;;;2.16;73.61;102143.41;4124165;28;20142;-61
2023/01/23 04:10:50;;;;;;;17.48;10.77;;;;;;;2.25;74.02;102148.34;4119398;28;20038;-61
2023/01/23 04:12:53;;;;;;;15.57;10.35;;;;;;;2.19;74.07;102147.84;4105957;28;20525;-61
2023/01/23 04:14:56;;;;;;;15.80;10.25;;;;;;;2.20;73.55;102145.41;4120147;28;20053;-61
2023/01/23 04:16:59;;;;;;;18.58;11.02;;;;;;;2.19;73.77;102146.19;4098510;28;20051;-61
2023/01/23 04:19:02;;;;;;;17.48;11.02;;;;;;;2.19;73.57;102147.84;4117729;28;20118;-61
2023/01/23 04:21:05;;;;;;;17.50;10.77;;;;;;;2.15;73.59;102151.00;4119863;28;20111;-61
2023/01/23 04:23:09;;;;;;;15.63;10.73;;;;;;;2.26;73.90;102142.41;4121796;28;20062;-61
2023/01/23 04:25:12;;;;;;;16.55;10.98;;;;;;;2.19;74.06;102152.97;4124685;28;20026;-61
2023/01/23 04:27:15;;;;;;;17.88;10.93;;;;;;;2.25;73.39;102150.91;4125953;28;20533;-61
2023/01/23 04:29:18;;;;;;;15.75;10.63;;;;;;;2.24;73.63;102155.13;4116157;28;20038;-62
2023/01/23 04:31:21;;;;;;;15.57;10.40;;;;;;;2.38;72.43;102155.25;4116931;28;20043;-62
2023/01/23 04:33:25;;;;;;;14.55;9.63;;;;;;;2.20;73.96;102159.91;4117512;28;20108;-62
2023/01/23 04:35:29;;;;;;;18.70;10.85;;;;;;;2.23;72.68;102157.56;4118540;28;20094;-62
2023/01/23 04:37:32;;;;;;;15.95;10.45;;;;;;;2.26;72.77;102160.38;4113635;28;20552;-63
2023/01/23 04:39:36;;;;;;;15.40;10.35;;;;;;;2.15;73.32;102166.38;4113752;28;20039;-63
2023/01/23 04:41:38;;;;;;;15.48;10.00;;;;;;;2.06;73.58;102167.47;4101278;28;20626;-63
2023/01/23 04:43:54;;;;;;;14.88;10.25;;;;;;;2.07;73.48;102164.13;4117148;28;20039;-63
2023/01/23 04:45:58;;;;;;;17.52;10.50;;;;;;;2.07;73.85;102166.69;4111982;28;20508;-63
2023/01/23 04:48:36;;;;;;;17.05;10.30;;;;;;;2.29;72.54;102159.72;4102722;28;20046;-63
2023/01/23 04:50:40;;;;;;;18.73;10.80;;;;;;;2.21;72.26;102164.28;4121382;28;20047;-63
2023/01/23 04:52:43;;;;;;;17.10;11.05;;;;;;;2.17;73.22;102162.25;4113630;28;20031;-63
2023/01/23 04:54:47;;;;;;;16.88;11.07;;;;;;;2.12;73.43;102167.03;4116917;28;20137;-63
2023/01/23 04:56:50;;;;;;;15.93;10.13;;;;;;;2.03;73.53;102177.50;4116569;28;20035;-63
2023/01/23 04:58:55;;;;;;;16.77;10.20;;;;;;;2.09;74.12;102171.94;4114325;28;20042;-63
2023/01/23 05:01:02;;;;;;;17.90;11.05;;;;;;;2.13;73.26;102179.06;4098901;28;20070;-63
2023/01/23 05:03:07;;;;;;;15.48;10.18;;;;;;;2.11;72.92;102190.00;4116461;28;20081;-62
2023/01/23 05:05:12;;;;;;;15.77;10.15;;;;;;;2.11;73.16;102192.56;4113758;28;20038;-63
2023/01/23 05:07:15;;;;;;;17.95;10.75;;;;;;;2.07;73.20;102194.91;4116411;28;20129;-63
2023/01/23 05:09:35;;;;;;;19.00;11.38;;;;;;;2.19;73.05;102197.50;4111467;28;20039;-63
2023/01/23 05:11:39;;;;;;;15.40;10.07;;;;;;;2.20;72.61;102203.53;4127704;28;20059;-63
2023/01/23 05:13:44;;;;;;;14.88;10.25;;;;;;;2.19;72.66;102200.09;4114047;28;20051;-63
2023/01/23 05:15:48;;;;;;;16.08;10.43;;;;;;;2.03;73.66;102207.34;4100258;28;20071;-63
2023/01/23 05:17:51;;;;;;;16.10;10.05;;;;;;;2.09;73.69;102207.84;4114985;28;20034;-63
2023/01/23 05:19:55;;;;;;;16.95;11.25;;;;;;;2.18;73.06;102205.09;4122279;28;20141;-63
2023/01/23 05:21:58;;;;;;;17.23;10.18;;;;;;;2.16;72.60;102209.19;4124419;28;20530;-63
2023/01/23 05:24:01;;;;;;;15.60;10.70;;;;;;;2.22;72.75;102209.66;4120213;28;20130;-63
2023/01/23 05:26:05;;;;;;;17.02;10.27;;;;;;;2.21;72.61;102206.22;4117779;28;20042;-63
2023/01/23 05:28:09;;;;;;;13.23;9.35;;;;;;;2.13;73.04;102214.97;4112070;28;20043;-63
2023/01/23 05:30:22;;;;;;;16.10;10.75;;;;;;;2.12;73.02;102217.44;4138598;28;20050;-63
2023/01/23 05:32:28;;;;;;;16.17;10.15;;;;;;;2.25;72.94;102215.06;4120142;28;20520;-63
2023/01/23 05:34:43;;;;;;;16.50;10.00;;;;;;;2.15;72.92;102220.25;4121146;28;20047;-63
2023/01/23 05:36:53;;;;;;;16.50;10.00;;;;;;;2.16;72.66;102220.38;4115704;28;20113;-63
2023/01/23 05:38:56;;;;;;;14.50;9.63;;;;;;;2.19;73.18;102215.47;4112939;28;20070;-63
2023/01/23 05:41:02;;;;;;;16.33;10.65;;;;;;;2.05;73.70;102216.97;4121092;28;20070;-63
2023/01/23 05:43:25;;;;;;;15.00;10.27;;;;;;;2.04;73.59;102212.59;4120368;28;20050;-63
2023/01/23 05:45:54;;;;;;;15.65;10.32;;;;;;;2.11;73.67;102220.78;4105381;28;20074;-63
2023/01/23 05:48:07;;;;;;;14.73;9.77;;;;;;;2.14;73.94;102221.91;4111788;28;20043;-62
2023/01/23 05:50:15;;;;;;;18.20;11.00;;;;;;;2.19;73.39;102227.38;4119813;28;20041;-63
2023/01/23 05:52:20;;;;;;;16.02;10.55;;;;;;;2.19;73.28;102229.97;4138309;28;20132;-62
2023/01/23 05:54:23;;;;;;;16.00;10.15;;;;;;;2.21;73.29;102225.84;4108152;28;20046;-63
2023/01/23 05:56:28;;;;;;;15.13;9.95;;;;;;;2.17;73.13;102224.72;4122115;28;20086;-62
2023/01/23 05:58:50;;;;;;;14.57;9.68;;;;;;;2.24;73.29;102226.09;4115564;28;20098;-62
2023/01/23 06:01:01;;;;;;;16.42;10.52;;;;;;;2.26;73.03;102233.13;4118627;28;20039;-62
2023/01/23 06:03:22;;;;;;;15.35;9.82;;;;;;;2.24;72.88;102236.34;4123431;28;20038;-62
2023/01/23 06:05:43;;;;;;;16.45;10.10;;;;;;;2.23;73.30;102232.91;4109798;28;20039;-62
2023/01/23 06:07:52;;;;;;;16.35;10.90;;;;;;;2.26;72.85;102229.66;4114316;28;20043;-62
2023/01/23 06:09:55;;;;;;;17.33;10.57;;;;;;;2.23;72.93;102231.97;4116086;28;20046;-62
2023/01/23 06:11:58;;;;;;;17.33;11.05;;;;;;;2.27;73.05;102234.91;4118558;28;20045;-62
2023/01/23 06:14:02;;;;;;;15.40;10.63;;;;;;;2.23;72.78;102232.91;4120789;28;20078;-62
2023/01/23 06:16:06;;;;;;;17.33;11.02;;;;;;;2.21;72.82;102238.69;4124574;28;20699;-62
2023/01/23 06:18:12;;;;;;;14.45;9.43;;;;;;;2.30;72.88;102244.50;4124858;28;20093;-62
2023/01/23 06:20:16;;;;;;;16.98;11.15;;;;;;;2.23;72.84;102243.16;4115154;28;20085;-61
2023/01/23 06:22:20;;;;;;;15.82;9.82;;;;;;;2.28;72.60;102243.50;4114043;28;20038;-62
2023/01/23 06:24:40;;;;;;;16.05;10.30;;;;;;;2.26;72.33;102237.34;4120687;28;20042;-62
2023/01/23 06:26:43;;;;;;;17.95;10.10;;;;;;;2.16;72.88;102235.78;4123849;28;20069;-62
2023/01/23 06:28:47;;;;;;;14.98;9.88;;;;;;;2.20;72.15;102242.91;4128174;28;20081;-63
2023/01/23 06:30:51;;;;;;;16.10;10.90;;;;;;;2.20;72.74;102235.19;4114168;28;20047;-61
2023/01/23 06:33:01;;;;;;;17.67;11.02;;;;;;;2.23;72.44;102240.59;4095149;28;20086;-61
2023/01/23 06:35:10;;;;;;;17.40;11.18;;;;;;;2.26;72.10;102245.03;4118943;28;20121;-61
2023/01/23 06:37:16;;;;;;;17.92;11.10;;;;;;;2.19;72.63;102240.22;4133494;28;20080;-63
2023/01/23 06:39:20;;;;;;;18.00;10.65;;;;;;;2.20;72.79;102242.03;4125187;28;20517;-61
2023/01/23 06:41:25;;;;;;;16.77;10.30;;;;;;;2.14;73.25;102237.31;4116215;28;20050;-61
2023/01/23 06:43:29;;;;;;;15.70;10.80;;;;;;;2.20;72.56;102239.44;4115727;28;20064;-61
2023/01/23 06:45:32;;;;;;;16.58;10.02;;;;;;;2.14;72.63;102242.44;4119609;28;20095;-62
2023/01/23 06:47:36;;;;;;;16.55;10.43;;;;;;;2.18;72.65;102238.44;4120583;28;20030;-61
2023/01/23 06:49:39;;;;;;;18.83;11.10;;;;;;;2.15;72.60;102240.78;4127338;28;20523;-62
2023/01/23 06:51:42;;;;;;;14.90;10.00;;;;;;;2.19;72.91;102235.09;4127131;28;20085;-61
2023/01/23 06:53:47;;;;;;;17.50;11.05;;;;;;;2.21;72.44;102243.81;4113178;28;20538;-62
2023/01/23 06:55:50;;;;;;;13.98;9.68;;;;;;;2.19;72.86;102242.78;4114518;28;20125;-62
2023/01/23 06:57:53;;;;;;;16.88;10.20;;;;;;;2.13;72.90;102242.31;4119072;28;20077;-62
2023/01/23 06:59:56;;;;;;;14.25;9.70;;;;;;;2.14;72.74;102241.56;4121609;28;20046;-62
2023/01/23 07:01:59;;;;;;;20.77;10.85;;;;;;;2.20;72.76;102249.72;4123511;28;20129;-62
2023/01/23 07:04:15;;;;;;;16.83;10.43;;;;;;;2.06;72.16;102249.56;4123921;28;20125;-62
2023/01/23 07:06:19;;;;;;;15.48;10.30;;;;;;;2.08;72.95;102255.69;4117579;28;20074;-62
2023/01/23 07:08:22;;;;;;;15.07;10.23;;;;;;;2.14;72.77;102262.97;4116209;28;20122;-62
2023/01/23 07:10:26;;;;;;;15.32;10.05;;;;;;;2.07;72.67;102263.25;4115519;28;20130;-62
2023/01/23 07:12:29;;;;;;;15.63;10.45;;;;;;;2.01;72.88;102268.81;4121318;28;20034;-62
2023/01/23 07:14:32;;;;;;;16.02;10.30;;;;;;;1.97;73.25;102266.81;4121463;28;20403;-63
2023/01/23 07:16:36;;;;;;;16.17;10.30;;;;;;;1.97;72.83;102271.00;4125892;28;20026;-62
2023/01/23 07:18:40;;;;;;;13.35;9.40;;;;;;;2.07;72.67;102279.56;4121307;28;20476;-63
2023/01/23 07:20:46;;;;;;;16.83;11.27;;;;;;;2.07;72.94;102281.22;4114737;28;20038;-62
2023/01/23 07:22:50;;;;;;;18.33;11.23;;;;;;;1.99;73.71;102278.06;4118083;28;20042;-63
2023/01/23 07:24:52;;;;;;;14.85;9.77;;;;;;;2.01;73.49;102281.63;4120452;28;20091;-63
2023/01/23 07:26:55;;;;;;;15.45;10.00;;;;;;;2.00;72.98;102284.06;4123794;28;20047;-62
2023/01/23 07:28:59;;;;;;;15.45;10.20;;;;;;;2.07;73.28;102294.03;4119402;28;20049;-63
2023/01/23 07:31:02;;;;;;;14.95;9.73;;;;;;;2.11;72.87;102297.75;4115529;28;20035;-63
2023/01/23 07:33:06;;;;;;;14.80;9.48;;;;;;;2.15;72.84;102294.66;4100771;28;20146;-63
2023/01/23 07:35:09;;;;;;;14.95;9.15;;;;;;;2.20;72.68;102304.47;4111768;28;21142;-63
2023/01/23 07:37:13;;;;;;;15.68;9.45;;;;;;;2.18;72.10;102318.00;4120824;28;20047;-63
2023/01/23 07:39:16;;;;;;;15.63;10.70;;;;;;;2.23;71.99;102308.97;4123811;28;20042;-62
2023/01/23 07:41:19;;;;;;;14.98;10.55;;;;;;;2.18;72.22;102323.13;4126807;28;20097;-63
2023/01/23 07:43:22;;;;;;;13.57;9.27;;;;;;;2.13;72.26;102314.16;4130043;28;20110;-63
2023/01/23 07:45:25;;;;;;;15.32;10.07;;;;;;;2.08;72.95;102319.81;4117595;28;20114;-62
2023/01/23 07:47:27;;;;;;;17.48;10.55;;;;;;;2.06;73.10;102316.25;4117951;28;20039;-62
2023/01/23 07:49:30;;;;;;;17.30;10.63;;;;;;;2.13;73.19;102317.59;4121700;28;20451;-63
2023/01/23 07:51:34;;;;;;;15.07;10.00;;;;;;;2.14;73.27;102313.38;4123086;28;20050;-63
2023/01/23 07:53:38;;;;;;;14.38;10.18;;;;;;;2.11;72.84;102310.59;4126423;28;20034;-62
2023/01/23 07:55:41;;;;;;;15.18;10.15;;;;;;;2.19;73.23;102317.19;4130276;28;20408;-63
2023/01/23 07:57:44;;;;;;;17.58;9.88;;;;;;;2.18;72.87;102325.69;4131305;28;20497;-62
2023/01/23 07:59:47;;;;;;;15.38;9.82;;;;;;;2.36;72.10;102326.22;4109633;28;20051;-63
2023/01/23 08:01:51;;;;;;;14.57;9.95;;;;;;;2.30;72.15;102321.50;4117467;28;20055;-63
2023/01/23 08:03:54;;;;;;;14.48;9.80;;;;;;;2.29;72.40;102324.84;4122282;28;20043;-62
2023/01/23 08:05:58;;;;;;;17.02;10.45;;;;;;;2.41;72.22;102323.25;4122285;28;20571;-62
2023/01/23 08:08:01;;;;;;;14.37;9.47;;;;;;;2.52;71.68;102325.72;4128279;28;20042;-62
2023/01/23 08:10:17;;;;;;;15.55;10.82;;;;;;;2.48;71.59;102321.13;4130898;28;20122;-62
2023/01/23 08:12:21;;;;;;;15.05;9.48;;;;;;;2.56;71.79;102320.94;4119961;28;20097;-63
2023/01/23 08:14:23;;;;;;;14.85;9.68;;;;;;;2.62;70.89;102330.78;4118218;28;20042;-62
2023/01/23 08:16:26;;;;;;;15.95;10.20;;;;;;;2.54;70.69;102327.66;4121743;28;20042;-62
2023/01/23 08:18:30;;;;;;;15.43;10.18;;;;;;;2.58;70.75;102321.94;4125069;28;20066;-63
2023/01/23 08:20:33;;;;;;;15.77;10.68;;;;;;;2.50;71.33;102327.28;4126203;28;20034;-62
2023/01/23 08:22:39;;;;;;;17.52;10.48;;;;;;;2.64;70.66;102321.53;4129547;28;20488;-63
2023/01/23 08:24:42;;;;;;;16.88;10.68;;;;;;;2.62;70.99;102317.97;4122661;28;20039;-62
2023/01/23 08:26:46;;;;;;;16.52;11.32;;;;;;;2.62;71.50;102316.28;4118123;28;20070;-63
2023/01/23 08:28:49;;;;;;;16.50;10.98;;;;;;;2.67;71.46;102320.88;4116817;28;20039;-62
2023/01/23 08:30:52;;;;;;;15.57;10.40;;;;;;;2.69;71.33;102316.75;4123945;28;20561;-62
2023/01/23 08:32:55;;;;;;;17.25;10.65;;;;;;;2.61;71.79;102319.63;4125855;28;20043;-63
2023/01/23 08:34:58;;;;;;;15.65;11.07;;;;;;;2.69;71.38;102317.66;4127749;28;20044;-62
2023/01/23 08:37:01;;;;;;;18.70;9.25;;;;;;;2.65;71.68;102320.75;4129825;28;20527;-62
2023/01/23 08:39:04;;;;;;;16.45;10.32;;;;;;;2.71;71.26;102330.59;4117801;28;20039;-62
2023/01/23 08:41:08;;;;;;;18.10;10.90;;;;;;;2.82;70.72;102339.13;4119823;28;20047;-62
2023/01/23 08:43:13;;;;;;;14.63;10.13;;;;;;;2.84;70.88;102327.31;4122173;28;20432;-63
2023/01/23 08:45:16;;;;;;;14.23;9.60;;;;;;;2.88;70.87;102334.47;4125027;28;20038;-63
2023/01/23 08:47:19;;;;;;;18.95;10.90;;;;;;;2.84;70.58;102329.88;4127310;28;20122;-63
2023/01/23 08:49:22;;;;;;;16.73;10.85;;;;;;;2.79;70.56;102329.53;4129472;28;20069;-62
2023/01/23 08:51:26;;;;;;;18.27;11.77;;;;;;;2.83;70.12;102322.94;4119784;28;20045;-62
2023/01/23 08:53:28;;;;;;;15.97;9.70;;;;;;;2.73;70.88;102314.53;4118627;28;20051;-62
2023/01/23 08:55:34;;;;;;;19.80;13.75;;;;;;;2.67;71.12;102321.75;4122835;28;20042;-62
2023/01/23 08:57:37;;;;;;;21.42;12.60;;;;;;;2.68;70.90;102322.66;4125897;28;20030;-62
2023/01/23 08:59:43;;;;;;;19.85;12.15;;;;;;;2.64;71.47;102318.97;4129115;28;20050;-63
2023/01/23 09:01:46;;;;;;;17.05;11.68;;;;;;;2.66;71.37;102317.41;4123684;28;20038;-61
2023/01/23 09:03:50;;;;;;;18.85;11.93;;;;;;;2.83;71.22;102320.38;4115389;28;20046;-61
2023/01/23 09:05:52;;;;;;;16.38;11.70;;;;;;;2.77;70.83;102320.78;4120849;28;20547;-61
2023/01/23 09:07:56;;;;;;;20.60;12.23;;;;;;;2.82;70.64;102323.69;4124498;28;20081;-61
2023/01/23 09:10:03;;;;;;;18.13;12.43;;;;;;;2.75;71.42;102324.94;4127607;28;20075;-61
2023/01/23 09:12:07;;;;;;;18.55;11.32;;;;;;;2.78;71.27;102331.19;4128026;28;20515;-61
2023/01/23 09:14:09;;;;;;;18.50;12.20;;;;;;;2.78;71.36;102331.19;4117050;28;20042;-61
2023/01/23 09:16:14;;;;;;;17.73;11.10;;;;;;;2.78;70.92;102326.03;4121392;28;20088;-61
2023/01/23 09:18:17;;;;;;;18.23;12.20;;;;;;;2.83;70.58;102334.09;4119427;28;20062;-62
2023/01/23 09:20:20;;;;;;;18.63;11.55;;;;;;;2.88;70.74;102334.47;4125400;28;20680;-62
2023/01/23 09:22:23;;;;;;;16.48;10.52;;;;;;;2.85;71.16;102336.78;4128507;28;20038;-62
2023/01/23 09:24:26;;;;;;;19.23;12.13;;;;;;;2.87;70.84;102338.69;4118257;28;20031;-62
2023/01/23 09:26:29;;;;;;;18.80;11.85;;;;;;;2.96;70.65;102339.41;4117790;28;20054;-62
2023/01/23 09:28:32;;;;;;;17.33;11.25;;;;;;;2.95;70.26;102341.84;4122588;28;20039;-62
2023/01/23 09:30:35;;;;;;;16.02;10.10;;;;;;;3.08;69.08;102338.50;4125624;28;20134;-62
2023/01/23 09:32:40;;;;;;;18.30;11.02;;;;;;;3.08;69.97;102342.00;4121924;28;20043;-62
2023/01/23 09:34:42;;;;;;;17.88;10.68;;;;;;;3.09;69.69;102337.75;4122388;28;20051;-62
2023/01/23 09:36:45;;;;;;;19.00;11.32;;;;;;;3.02;69.40;102333.81;4116246;28;20043;-62
2023/01/23 09:38:48;;;;;;;18.10;10.57;;;;;;;3.08;68.83;102339.44;4116571;28;20066;-63
2023/01/23 09:40:54;;;;;;;16.58;9.95;;;;;;;3.11;69.16;102339.66;4131205;28;20042;-62
2023/01/23 09:43:02;;;;;;;15.88;10.00;;;;;;;3.08;69.56;102341.09;4127091;28;20591;-62